createdAt,value
2022-09-25T00:02:44.854Z,11.73
2022-09-25T00:07:46.783Z,15.93
2022-09-25T00:12:48.470Z,14.30
2022-09-25T00:17:50.470Z,14.32
2022-09-25T00:22:53.549Z,13.55
2022-09-25T00:27:55.785Z,12.80
2022-09-25T00:32:57.451Z,13.48
2022-09-25T00:37:59.110Z,12.82
2022-09-25T00:43:00.937Z,14.75
2022-09-25T00:48:07.406Z,11.98
2022-09-25T00:53:16.414Z,12.02
2022-09-25T00:58:22.861Z,11.05
2022-09-25T01:03:26.005Z,10.80
2022-09-25T01:08:29.674Z,9.80
2022-09-25T01:13:31.564Z,12.60
2022-09-25T01:19:18.126Z,14.30
2022-09-25T01:24:34.851Z,14.65
2022-09-25T01:29:42.512Z,14.18
2022-09-25T01:35:04.852Z,12.60
2022-09-25T01:40:18.624Z,12.50
2022-09-25T01:45:29.745Z,12.70
2022-09-25T01:50:47.823Z,11.18
2022-09-25T01:55:56.832Z,14.15
2022-09-25T02:01:04.331Z,15.00
2022-09-25T02:06:10.161Z,15.40
2022-09-25T02:11:12.580Z,15.63
2022-09-25T02:16:20.630Z,13.05
2022-09-25T02:21:50.654Z,13.45
2022-09-25T02:26:52.838Z,13.38
2022-09-25T02:31:59.759Z,12.98
2022-09-25T02:37:01.522Z,11.20
2022-09-25T02:42:15.063Z,9.88
2022-09-25T02:47:43.397Z,10.90
2022-09-25T02:53:07.136Z,11.95
2022-09-25T02:58:40.873Z,12.20
2022-09-25T03:03:45.709Z,11.60
2022-09-25T03:08:52.034Z,10.70
2022-09-25T03:13:58.842Z,12.32
2022-09-25T03:19:02.184Z,12.15
2022-09-25T03:24:04.564Z,11.55
2022-09-25T03:29:06.403Z,10.52
2022-09-25T03:34:08.545Z,11.70
2022-09-25T03:39:15.093Z,11.43
2022-09-25T03:44:17.267Z,12.45
2022-09-25T03:49:18.967Z,14.18
2022-09-25T03:54:20.638Z,12.35
2022-09-25T03:59:22.350Z,13.90
2022-09-25T04:04:24.092Z,15.68
2022-09-25T04:09:25.932Z,14.23
2022-09-25T04:14:27.641Z,15.20
2022-09-25T04:19:29.332Z,15.55
2022-09-25T04:24:49.051Z,16.38
2022-09-25T04:29:50.885Z,15.95
2022-09-25T04:34:53.172Z,16.35
2022-09-25T04:39:56.199Z,14.10
2022-09-25T04:44:58.441Z,14.63
2022-09-25T04:50:00.251Z,12.93
2022-09-25T04:55:03.602Z,12.75
2022-09-25T05:00:06.932Z,12.30
2022-09-25T05:05:09.021Z,13.50
2022-09-25T05:10:10.726Z,12.65
2022-09-25T05:15:12.393Z,11.43
2022-09-25T05:20:14.231Z,13.07
2022-09-25T05:25:15.969Z,12.43
2022-09-25T05:30:17.801Z,12.85
2022-09-25T05:35:24.101Z,14.30
2022-09-25T05:40:26.238Z,11.18
2022-09-25T05:45:28.115Z,14.27
2022-09-25T05:50:31.597Z,15.75
2022-09-25T05:55:33.734Z,17.23
2022-09-25T06:00:35.470Z,14.10
2022-09-25T06:05:37.328Z,14.73
2022-09-25T06:10:40.447Z,13.85
2022-09-25T06:15:42.258Z,14.25
2022-09-25T06:20:44.092Z,14.43
2022-09-25T06:25:46.117Z,48.55
2022-09-25T06:30:48.094Z,26.13
2022-09-25T06:35:50.328Z,21.00
2022-09-25T06:40:52.847Z,16.92
2022-09-25T06:45:54.746Z,17.35
2022-09-25T06:50:58.757Z,17.45
2022-09-25T06:56:00.885Z,17.10
2022-09-25T07:01:06.386Z,16.20
2022-09-25T07:06:20.750Z,16.00
2022-09-25T07:11:23.965Z,16.25
2022-09-25T07:16:30.588Z,14.48
2022-09-25T07:21:32.672Z,14.15
2022-09-25T07:26:34.645Z,13.73
2022-09-25T07:31:39.191Z,12.63
2022-09-25T07:36:42.725Z,12.40
2022-09-25T07:41:44.466Z,11.82
2022-09-25T07:46:46.706Z,10.98
2022-09-25T07:51:48.525Z,11.77
2022-09-25T07:56:50.216Z,10.60
2022-09-25T08:01:54.176Z,15.10
2022-09-25T08:06:58.047Z,15.95
2022-09-25T08:11:59.772Z,12.85
2022-09-25T08:17:01.495Z,9.50
2022-09-25T08:22:03.331Z,14.65
2022-09-25T08:27:05.670Z,11.90
2022-09-25T08:32:07.501Z,9.45
2022-09-25T08:37:10.261Z,8.85
2022-09-25T08:42:24.368Z,10.80
2022-09-25T08:47:46.830Z,12.43
2022-09-25T08:52:55.305Z,7.90
2022-09-25T08:57:57.174Z,9.38
2022-09-25T09:02:59.540Z,7.25
2022-09-25T09:08:07.412Z,7.03
2022-09-25T09:13:41.291Z,7.40
2022-09-25T09:18:43.865Z,8.13
2022-09-25T09:24:03.653Z,8.10
2022-09-25T09:29:23.959Z,8.75
2022-09-25T09:35:04.682Z,10.02
2022-09-25T09:40:16.485Z,10.43
2022-09-25T09:50:53.154Z,8.23
2022-09-25T09:56:06.395Z,7.80
2022-09-25T10:01:39.888Z,6.95
2022-09-25T10:06:38.418Z,6.93
2022-09-25T10:11:40.852Z,7.32
2022-09-25T10:16:43.299Z,7.03
2022-09-25T10:21:57.701Z,7.38
2022-09-25T10:27:22.269Z,7.97
2022-09-25T10:32:24.045Z,8.40
2022-09-25T10:37:34.849Z,8.02
2022-09-25T10:42:41.096Z,35.10
2022-09-25T10:48:04.102Z,13.73
2022-09-25T10:53:07.537Z,8.93
2022-09-25T10:58:22.679Z,9.23
2022-09-25T11:03:30.244Z,9.57
2022-09-25T11:08:38.031Z,8.95
2022-09-25T11:13:55.362Z,8.50
2022-09-25T11:19:12.276Z,9.43
2022-09-25T11:24:40.666Z,9.60
2022-09-25T11:30:21.836Z,8.00
2022-09-25T11:35:57.160Z,7.07
2022-09-25T11:41:12.624Z,7.13
2022-09-25T11:46:21.071Z,7.13
2022-09-25T11:51:35.950Z,6.80
2022-09-25T11:56:50.127Z,7.65
2022-09-25T12:02:04.542Z,7.15
2022-09-25T12:07:24.253Z,7.78
2022-09-25T12:12:42.721Z,7.72
2022-09-25T12:17:56.236Z,8.82
2022-09-25T12:23:35.892Z,8.25
2022-09-25T12:29:11.813Z,7.88
2022-09-25T12:34:50.859Z,5.63
2022-09-25T12:40:05.943Z,4.68
2022-09-25T12:45:58.775Z,4.28
2022-09-25T12:51:06.971Z,4.30
2022-09-25T12:56:22.025Z,3.65
2022-09-25T13:01:47.873Z,3.85
2022-09-25T13:07:00.438Z,4.00
2022-09-25T13:12:10.964Z,3.10
2022-09-25T13:17:13.777Z,2.70
2022-09-25T13:22:25.026Z,2.15
2022-09-25T13:27:35.328Z,4.30
2022-09-25T13:32:47.752Z,2.10
2022-09-25T13:37:56.048Z,7.15
2022-09-25T13:43:38.217Z,1.90
2022-09-25T13:48:40.601Z,2.67
2022-09-25T13:54:08.975Z,3.20
2022-09-25T13:59:12.373Z,12.95
2022-09-25T14:04:14.226Z,4.03
2022-09-25T14:09:19.826Z,2.33
2022-09-25T14:14:34.747Z,2.50
2022-09-25T14:19:41.383Z,1.60
2022-09-25T14:24:45.355Z,2.05
2022-09-25T14:29:47.507Z,1.75
2022-09-25T14:35:21.896Z,1.90
2022-09-25T14:40:36.415Z,2.38
2022-09-25T14:45:56.983Z,2.10
2022-09-25T14:51:07.477Z,6.43
2022-09-25T14:56:12.538Z,4.32
2022-09-25T15:01:29.545Z,4.13
2022-09-25T15:06:36.692Z,3.00
2022-09-25T15:11:41.271Z,2.80
2022-09-25T15:17:06.587Z,2.25
2022-09-25T15:22:11.677Z,2.58
2022-09-25T15:27:16.279Z,4.22
2022-09-25T15:32:25.897Z,2.40
2022-09-25T15:37:31.002Z,2.08
2022-09-25T15:42:33.314Z,2.90
2022-09-25T15:47:35.072Z,1.85
2022-09-25T15:52:38.432Z,2.03
2022-09-25T15:57:41.566Z,2.53
2022-09-25T16:03:20.239Z,2.00
2022-09-25T16:08:24.732Z,5.70
2022-09-25T16:13:27.443Z,12.23
2022-09-25T16:18:32.793Z,2.60
2022-09-25T16:23:35.091Z,2.40
2022-09-25T16:28:37.446Z,2.45
2022-09-25T16:33:49.269Z,2.90
2022-09-25T16:39:14.347Z,3.13
2022-09-25T16:44:21.705Z,4.32
2022-09-25T16:49:24.968Z,2.42
2022-09-25T16:54:31.758Z,23.02
2022-09-25T16:59:33.615Z,15.70
2022-09-25T17:04:38.801Z,14.23
2022-09-25T17:09:40.548Z,28.55
2022-09-25T17:14:42.565Z,10.80
2022-09-25T17:19:44.403Z,31.60
2022-09-25T17:24:46.207Z,39.70
2022-09-25T17:29:48.253Z,16.90
2022-09-25T17:34:50.253Z,5.10
2022-09-25T17:39:52.113Z,7.20
2022-09-25T17:44:54.236Z,5.40
2022-09-25T17:49:57.644Z,5.07
2022-09-25T17:54:59.570Z,3.25
2022-09-25T18:00:01.501Z,7.65
2022-09-25T18:05:03.723Z,5.50
2022-09-25T18:10:06.025Z,4.75
2022-09-25T18:15:08.473Z,3.55
2022-09-25T18:20:31.842Z,3.75
2022-09-25T18:25:36.177Z,6.00
2022-09-25T18:30:38.682Z,2.95
2022-09-25T18:35:42.911Z,5.25
2022-09-25T18:40:45.045Z,4.30
2022-09-25T18:45:52.904Z,14.88
2022-09-25T18:50:54.727Z,13.82
2022-09-25T18:55:59.673Z,10.35
2022-09-25T19:01:01.995Z,3.80
2022-09-25T19:06:04.446Z,4.60
2022-09-25T19:11:14.414Z,3.45
2022-09-25T19:16:17.476Z,5.55
2022-09-25T19:21:24.201Z,4.82
2022-09-25T19:26:26.003Z,8.90
2022-09-25T19:31:28.563Z,8.40
2022-09-25T19:36:32.855Z,5.85
2022-09-25T19:41:36.551Z,4.47
2022-09-25T19:46:40.288Z,3.13
2022-09-25T19:51:43.165Z,2.70
2022-09-25T19:56:46.235Z,3.50
2022-09-25T20:01:48.287Z,3.17
2022-09-25T20:06:50.117Z,3.30
2022-09-25T20:11:52.003Z,3.58
2022-09-25T20:16:55.122Z,2.63
2022-09-25T20:21:56.918Z,3.15
2022-09-25T20:26:58.874Z,4.78
2022-09-25T20:32:00.953Z,5.20
2022-09-25T20:37:03.670Z,3.17
2022-09-25T20:42:05.776Z,3.22
2022-09-25T20:47:07.511Z,3.40
2022-09-25T20:52:10.050Z,3.63
2022-09-25T20:57:11.987Z,3.70
2022-09-25T21:02:13.988Z,3.90
2022-09-25T21:07:17.163Z,3.50
2022-09-25T21:12:19.340Z,4.88
2022-09-25T21:17:21.075Z,5.65
2022-09-25T21:22:22.911Z,4.50
2022-09-25T21:27:24.657Z,4.55
2022-09-25T21:32:28.518Z,4.32
2022-09-25T21:37:30.347Z,6.03
2022-09-25T21:42:32.135Z,5.60
2022-09-25T21:47:33.924Z,4.97
2022-09-25T21:52:38.303Z,4.88
2022-09-25T21:57:40.097Z,8.50
2022-09-25T22:02:42.038Z,4.25
2022-09-25T22:07:43.895Z,5.00
2022-09-25T22:12:45.565Z,4.70
2022-09-25T22:17:47.411Z,4.55
2022-09-25T22:22:49.384Z,5.05
2022-09-25T22:27:51.095Z,5.90
2022-09-25T22:32:52.795Z,4.70
2022-09-25T22:37:54.520Z,4.63
2022-09-25T22:43:00.376Z,4.60
2022-09-25T22:48:02.321Z,4.75
2022-09-25T22:53:04.268Z,4.90
2022-09-25T22:58:06.018Z,4.50
2022-09-25T23:03:07.784Z,4.65
2022-09-25T23:08:09.895Z,5.40
2022-09-25T23:13:11.703Z,5.63
2022-09-25T23:18:13.428Z,5.85
2022-09-25T23:23:16.292Z,6.25
2022-09-25T23:28:18.038Z,5.78
2022-09-25T23:33:19.746Z,6.15
2022-09-25T23:38:21.503Z,5.70
2022-09-25T23:43:23.384Z,5.35
2022-09-25T23:48:25.152Z,5.90
2022-09-25T23:53:27.138Z,5.70
2022-09-25T23:58:30.825Z,5.78
